createdAt,value
2018-04-14T00:01:53.382Z,91.05
2018-04-14T00:04:20.783Z,90.94
2018-04-14T00:06:48.171Z,90.93
2018-04-14T00:09:15.558Z,90.81
2018-04-14T00:11:42.962Z,90.97
2018-04-14T00:14:10.347Z,91.31
2018-04-14T00:16:37.731Z,91.48
2018-04-14T00:19:05.118Z,91.43
2018-04-14T00:21:32.506Z,91.61
2018-04-14T00:23:59.975Z,91.74
2018-04-14T00:26:27.371Z,91.83
2018-04-14T00:28:54.759Z,91.77
2018-04-14T00:31:22.147Z,91.53
2018-04-14T00:33:49.684Z,92.01
2018-04-14T00:36:17.070Z,92.07
2018-04-14T00:38:44.467Z,91.75
2018-04-14T00:41:11.859Z,91.74
2018-04-14T00:43:39.246Z,92.05
2018-04-14T00:46:06.637Z,92.21
2018-04-14T00:48:34.020Z,92.12
2018-04-14T00:51:01.423Z,91.98
2018-04-14T00:53:40.631Z,92.00
2018-04-14T00:56:08.026Z,91.88
2018-04-14T00:58:35.414Z,91.94
2018-04-14T01:01:02.805Z,92.00
2018-04-14T01:03:30.195Z,92.06
2018-04-14T01:05:57.582Z,92.10
2018-04-14T01:08:24.989Z,92.00
2018-04-14T01:10:52.380Z,91.97
2018-04-14T01:13:19.763Z,91.76
2018-04-14T01:15:47.159Z,91.53
2018-04-14T01:18:14.550Z,91.30
2018-04-14T01:20:41.943Z,91.36
2018-04-14T01:23:09.326Z,91.41
2018-04-14T01:25:36.715Z,91.47
2018-04-14T01:28:04.109Z,91.60
2018-04-14T01:30:31.504Z,92.09
2018-04-14T01:32:58.900Z,92.32
2018-04-14T01:35:26.275Z,92.18
2018-04-14T01:37:53.667Z,91.94
2018-04-14T01:40:21.062Z,91.93
2018-04-14T01:42:48.453Z,91.99
2018-04-14T01:45:15.847Z,92.34
2018-04-14T01:47:43.234Z,92.26
2018-04-14T01:50:10.678Z,92.34
2018-04-14T01:52:38.058Z,92.74
2018-04-14T01:55:05.447Z,92.58
2018-04-14T01:57:32.833Z,92.82
2018-04-14T02:00:00.219Z,92.84
2018-04-14T02:02:27.616Z,93.62
2018-04-14T02:04:55.007Z,93.21
2018-04-14T02:07:22.403Z,93.59
2018-04-14T02:09:49.791Z,93.20
2018-04-14T02:12:17.174Z,93.12
2018-04-14T02:14:44.568Z,92.84
2018-04-14T02:17:11.947Z,92.79
2018-04-14T02:19:39.339Z,92.76
2018-04-14T02:22:06.722Z,92.92
2018-04-14T02:24:34.119Z,92.67
2018-04-14T02:27:01.508Z,92.77
2018-04-14T02:29:28.890Z,92.91
2018-04-14T02:31:56.282Z,93.14
2018-04-14T02:34:23.668Z,93.37
2018-04-14T02:36:51.059Z,93.30
2018-04-14T02:39:18.451Z,93.33
2018-04-14T02:41:45.850Z,93.31
2018-04-14T02:44:13.230Z,93.31
2018-04-14T02:46:40.623Z,93.27
2018-04-14T02:49:08.015Z,93.52
2018-04-14T02:51:35.403Z,93.15
2018-04-14T02:54:02.799Z,93.18
2018-04-14T02:56:30.183Z,93.05
2018-04-14T02:58:57.619Z,92.91
2018-04-14T03:01:25.009Z,92.49
2018-04-14T03:03:52.391Z,92.52
2018-04-14T03:06:19.783Z,92.42
2018-04-14T03:08:47.167Z,92.38
2018-04-14T03:11:14.595Z,92.17
2018-04-14T03:13:41.975Z,91.62
2018-04-14T03:16:09.367Z,91.89
2018-04-14T03:18:36.762Z,91.90
2018-04-14T03:21:04.150Z,91.99
2018-04-14T03:23:31.538Z,92.14
2018-04-14T03:25:58.931Z,91.75
2018-04-14T03:28:26.635Z,91.83
2018-04-14T03:30:54.019Z,91.60
2018-04-14T03:33:21.402Z,91.46
2018-04-14T03:35:48.799Z,91.58
2018-04-14T03:38:16.187Z,91.50
2018-04-14T03:40:43.580Z,91.35
2018-04-14T03:43:10.963Z,91.56
2018-04-14T03:45:38.380Z,91.54
2018-04-14T03:48:05.738Z,91.73
2018-04-14T03:50:33.131Z,91.80
2018-04-14T03:53:00.515Z,92.06
2018-04-14T03:55:27.907Z,91.87
2018-04-14T03:57:55.291Z,91.85
2018-04-14T04:00:22.678Z,91.93
2018-04-14T04:02:50.071Z,92.02
2018-04-14T04:05:17.453Z,92.26
2018-04-14T04:07:44.847Z,92.29
2018-04-14T04:10:12.382Z,92.52
2018-04-14T04:12:39.772Z,92.72
2018-04-14T04:15:07.159Z,92.71
2018-04-14T04:17:34.543Z,93.13
2018-04-14T04:20:13.746Z,92.87
2018-04-14T04:22:52.915Z,92.19
2018-04-14T04:25:29.959Z,92.21
2018-04-14T04:27:57.364Z,92.31
2018-04-14T04:30:25.223Z,92.02
2018-04-14T04:32:52.609Z,91.57
2018-04-14T04:35:20.011Z,91.18
2018-04-14T04:37:47.398Z,91.12
2018-04-14T04:40:14.795Z,90.85
2018-04-14T04:42:42.182Z,90.62
2018-04-14T04:45:09.570Z,90.86
2018-04-14T04:47:36.975Z,90.28
2018-04-14T04:50:04.363Z,90.23
2018-04-14T04:52:31.751Z,90.15
2018-04-14T04:54:59.171Z,89.58
2018-04-14T04:57:26.552Z,89.79
2018-04-14T04:59:53.947Z,89.89
2018-04-14T05:02:21.330Z,90.12
2018-04-14T05:04:48.735Z,90.05
2018-04-14T05:07:16.119Z,90.38
2018-04-14T05:09:43.510Z,89.37
2018-04-14T05:12:10.903Z,89.46
2018-04-14T05:14:38.295Z,89.37
2018-04-14T05:17:05.691Z,89.32
2018-04-14T05:19:33.071Z,89.04
2018-04-14T05:22:00.806Z,88.94
2018-04-14T05:24:28.191Z,89.04
2018-04-14T05:26:55.583Z,89.01
2018-04-14T05:29:22.970Z,88.96
2018-04-14T05:31:50.359Z,88.73
2018-04-14T05:34:17.751Z,88.43
2018-04-14T05:36:45.154Z,87.67
2018-04-14T05:39:12.548Z,87.82
2018-04-14T05:41:39.930Z,87.67
2018-04-14T05:44:07.315Z,87.68
2018-04-14T05:46:34.703Z,87.84
2018-04-14T05:49:02.092Z,87.75
2018-04-14T05:51:29.483Z,87.45
2018-04-14T05:53:56.867Z,87.58
2018-04-14T05:56:24.472Z,87.35
2018-04-14T05:58:52.170Z,87.33
2018-04-14T06:01:19.554Z,87.69
2018-04-14T06:03:46.942Z,87.80
2018-04-14T06:06:14.326Z,87.74
2018-04-14T06:08:41.718Z,87.31
2018-04-14T06:11:09.111Z,87.13
2018-04-14T06:13:36.510Z,87.20
2018-04-14T06:16:03.898Z,87.09
2018-04-14T06:18:31.291Z,86.68
2018-04-14T06:20:58.725Z,86.19
2018-04-14T06:23:26.115Z,87.48
2018-04-14T06:25:53.512Z,87.51
2018-04-14T06:28:21.156Z,86.88
2018-04-14T06:30:48.979Z,86.53
2018-04-14T06:33:16.366Z,85.77
2018-04-14T06:35:43.755Z,85.77
2018-04-14T06:38:11.148Z,85.90
2018-04-14T06:40:38.535Z,85.81
2018-04-14T06:43:05.932Z,85.57
2018-04-14T06:45:33.319Z,85.50
2018-04-14T06:48:00.719Z,84.25
2018-04-14T06:50:28.121Z,84.00
2018-04-14T06:52:55.516Z,84.43
2018-04-14T06:55:22.906Z,83.25
2018-04-14T06:57:50.295Z,83.42
2018-04-14T07:00:17.690Z,83.85
2018-04-14T07:02:45.084Z,84.03
2018-04-14T07:05:12.479Z,83.57
2018-04-14T07:07:39.867Z,82.84
2018-04-14T07:10:07.262Z,82.52
2018-04-14T07:12:34.650Z,83.02
2018-04-14T07:15:02.044Z,81.97
2018-04-14T07:17:29.487Z,81.41
2018-04-14T07:19:56.823Z,81.17
2018-04-14T07:22:24.230Z,81.63
2018-04-14T07:24:51.619Z,80.96
2018-04-14T07:27:19.079Z,80.37
2018-04-14T07:29:46.496Z,80.61
2018-04-14T07:32:13.951Z,80.89
2018-04-14T07:34:41.330Z,81.66
2018-04-14T07:37:08.715Z,81.28
2018-04-14T07:39:36.427Z,81.54
2018-04-14T07:42:03.848Z,81.54
2018-04-14T07:44:31.237Z,81.28
2018-04-14T07:46:58.631Z,79.80
2018-04-14T07:49:26.012Z,80.86
2018-04-14T07:51:53.403Z,80.36
2018-04-14T07:54:20.794Z,80.21
2018-04-14T07:56:48.199Z,79.90
2018-04-14T07:59:15.599Z,79.75
2018-04-14T08:01:43.075Z,79.56
2018-04-14T08:04:10.468Z,80.22
2018-04-14T08:06:37.862Z,80.56
2018-04-14T08:09:05.975Z,80.37
2018-04-14T08:11:33.404Z,78.28
2018-04-14T08:14:00.758Z,78.56
2018-04-14T08:16:28.151Z,80.20
2018-04-14T08:18:55.535Z,79.84
2018-04-14T08:21:22.927Z,80.42
2018-04-14T08:23:50.315Z,78.32
2018-04-14T08:26:17.775Z,79.00
2018-04-14T08:28:45.170Z,79.20
2018-04-14T08:31:12.589Z,78.26
2018-04-14T08:33:39.998Z,76.91
2018-04-14T08:36:07.395Z,77.66
2018-04-14T08:38:34.786Z,76.24
2018-04-14T08:41:02.199Z,75.52
2018-04-14T08:43:29.595Z,76.79
2018-04-14T08:45:56.994Z,74.88
2018-04-14T08:48:24.418Z,74.66
2018-04-14T08:50:51.814Z,72.84
2018-04-14T08:53:19.203Z,72.62
2018-04-14T08:55:46.602Z,71.73
2018-04-14T08:58:13.985Z,71.87
2018-04-14T09:00:41.382Z,70.15
2018-04-14T09:03:08.781Z,69.45
2018-04-14T09:05:36.161Z,70.00
2018-04-14T09:08:03.555Z,67.59
2018-04-14T09:10:30.939Z,67.77
2018-04-14T09:12:58.351Z,67.49
2018-04-14T09:15:25.754Z,66.18
2018-04-14T09:17:53.222Z,65.86
2018-04-14T09:20:20.615Z,64.72
2018-04-14T09:22:48.007Z,65.19
2018-04-14T09:25:15.400Z,65.00
2018-04-14T09:27:42.783Z,65.18
2018-04-14T09:30:10.183Z,64.65
2018-04-14T09:32:37.567Z,63.71
2018-04-14T09:35:04.966Z,62.51
2018-04-14T09:37:32.378Z,63.05
2018-04-14T09:39:59.762Z,63.26
2018-04-14T09:42:27.160Z,62.41
2018-04-14T09:44:54.555Z,61.38
2018-04-14T09:47:21.951Z,61.42
2018-04-14T09:49:49.341Z,61.79
2018-04-14T09:52:16.727Z,61.64
2018-04-14T09:54:44.123Z,61.71
2018-04-14T09:57:11.519Z,61.34
2018-04-14T09:59:38.903Z,62.54
2018-04-14T10:02:06.295Z,62.36
2018-04-14T10:04:33.695Z,60.98
2018-04-14T10:07:01.079Z,61.53
2018-04-14T10:09:28.470Z,62.91
2018-04-14T10:11:55.866Z,62.15
2018-04-14T10:14:23.261Z,62.39
2018-04-14T10:16:50.663Z,62.29
2018-04-14T10:19:18.047Z,62.26
2018-04-14T10:21:45.449Z,63.59
2018-04-14T10:24:12.830Z,63.99
2018-04-14T10:26:40.224Z,62.07
2018-04-14T10:29:07.713Z,61.59
2018-04-14T10:31:35.091Z,60.33
2018-04-14T10:34:02.487Z,61.16
2018-04-14T10:36:29.870Z,60.70
2018-04-14T10:38:57.266Z,59.42
2018-04-14T10:41:24.674Z,60.17
2018-04-14T10:43:52.112Z,58.13
2018-04-14T10:46:19.451Z,58.39
2018-04-14T10:48:46.846Z,56.67
2018-04-14T10:51:14.246Z,57.78
2018-04-14T10:53:41.632Z,58.57
2018-04-14T10:56:09.024Z,57.00
2018-04-14T10:58:36.418Z,55.97
2018-04-14T11:01:03.799Z,54.72
2018-04-14T11:03:31.199Z,53.13
2018-04-14T11:05:58.590Z,49.96
2018-04-14T11:08:25.978Z,49.92
2018-04-14T11:10:53.367Z,49.76
2018-04-14T11:13:20.848Z,49.58
2018-04-14T11:15:48.239Z,52.56
2018-04-14T11:18:15.635Z,49.79
2018-04-14T11:20:43.031Z,47.47
2018-04-14T11:23:10.419Z,48.84
2018-04-14T11:25:37.832Z,47.20
2018-04-14T11:28:05.254Z,48.70
2018-04-14T11:30:33.046Z,49.45
2018-04-14T11:33:00.436Z,49.94
2018-04-14T11:35:27.819Z,50.78
2018-04-14T11:37:55.215Z,47.79
2018-04-14T11:40:22.610Z,44.21
2018-04-14T11:42:49.998Z,46.57
2018-04-14T11:45:17.390Z,47.87
2018-04-14T11:47:44.783Z,48.60
2018-04-14T11:50:12.170Z,47.90
2018-04-14T11:52:39.563Z,48.21
2018-04-14T11:55:06.959Z,47.69
2018-04-14T11:57:34.372Z,48.55
2018-04-14T12:00:01.739Z,51.20
2018-04-14T12:02:29.126Z,49.27
2018-04-14T12:04:56.511Z,47.76
2018-04-14T12:07:23.903Z,47.41
2018-04-14T12:09:51.325Z,47.69
2018-04-14T12:12:20.355Z,48.66
2018-04-14T12:14:47.787Z,46.39
2018-04-14T12:17:15.131Z,46.96
2018-04-14T12:19:42.528Z,48.28
2018-04-14T12:22:09.915Z,45.11
2018-04-14T12:24:37.306Z,44.99
2018-04-14T12:27:04.696Z,45.61
2018-04-14T12:29:32.092Z,48.29
2018-04-14T12:31:59.487Z,46.50
2018-04-14T12:34:26.876Z,46.16
2018-04-14T12:36:54.595Z,46.38
2018-04-14T12:39:21.991Z,47.33
2018-04-14T12:41:49.380Z,48.26
2018-04-14T12:44:16.774Z,50.33
2018-04-14T12:46:44.159Z,47.92
2018-04-14T12:49:11.815Z,49.19
2018-04-14T12:51:39.203Z,51.20
2018-04-14T12:54:06.603Z,49.73
2018-04-14T12:56:33.995Z,48.59
2018-04-14T12:59:01.383Z,47.54
2018-04-14T13:01:28.780Z,47.54
2018-04-14T13:03:56.166Z,47.92
2018-04-14T13:06:23.555Z,46.75
2018-04-14T13:08:50.956Z,44.69
2018-04-14T13:11:18.342Z,46.23
2018-04-14T13:13:45.734Z,46.44
2018-04-14T13:16:13.126Z,47.00
2018-04-14T13:18:40.523Z,48.49
2018-04-14T13:21:07.923Z,47.96
2018-04-14T13:23:35.305Z,47.17
2018-04-14T13:26:02.722Z,47.04
2018-04-14T13:28:30.104Z,49.09
2018-04-14T13:30:57.499Z,47.70
2018-04-14T13:33:24.887Z,45.35
2018-04-14T13:35:52.275Z,46.55
2018-04-14T13:38:19.667Z,47.34
2018-04-14T13:40:47.055Z,46.60
2018-04-14T13:43:14.500Z,45.20
2018-04-14T13:45:41.874Z,45.93
2018-04-14T13:48:09.279Z,45.92
2018-04-14T13:50:36.663Z,47.02
2018-04-14T13:55:54.900Z,49.11
2018-04-14T13:58:22.290Z,47.54
2018-04-14T14:00:49.680Z,48.38
2018-04-14T14:03:17.079Z,48.33
2018-04-14T14:05:44.463Z,51.08
2018-04-14T14:08:11.854Z,47.53
2018-04-14T14:10:39.247Z,47.44
2018-04-14T14:13:06.631Z,48.14
2018-04-14T14:15:34.171Z,48.66
2018-04-14T14:18:01.568Z,48.23
2018-04-14T14:20:28.963Z,49.01
2018-04-14T14:22:56.355Z,47.76
2018-04-14T14:25:23.761Z,47.89
2018-04-14T14:27:51.147Z,47.67
2018-04-14T14:30:18.535Z,47.86
2018-04-14T14:32:45.926Z,47.93
2018-04-14T14:35:13.411Z,49.15
2018-04-14T14:37:40.806Z,48.41
2018-04-14T14:40:08.198Z,48.48
2018-04-14T14:42:35.611Z,47.19
2018-04-14T14:45:03.026Z,48.88
2018-04-14T14:47:36.076Z,48.74
2018-04-14T14:50:09.152Z,48.78
2018-04-14T14:52:37.522Z,49.27
2018-04-14T14:55:04.919Z,49.55
2018-04-14T14:57:32.302Z,48.80
2018-04-14T14:59:59.703Z,49.33
2018-04-14T15:02:27.095Z,50.01
2018-04-14T15:04:54.496Z,51.13
2018-04-14T15:07:21.884Z,50.52
2018-04-14T15:09:49.262Z,50.73
2018-04-14T15:12:16.669Z,51.50
2018-04-14T15:14:44.039Z,50.87
2018-04-14T15:17:11.431Z,50.29
2018-04-14T15:19:38.856Z,50.65
2018-04-14T15:22:06.245Z,50.78
2018-04-14T15:24:33.632Z,49.13
2018-04-14T15:27:01.024Z,49.85
2018-04-14T15:29:28.416Z,50.42
2018-04-14T15:31:55.811Z,50.76
2018-04-14T15:34:23.195Z,49.40
2018-04-14T15:36:50.591Z,49.40
2018-04-14T15:39:17.979Z,50.39
2018-04-14T15:41:45.382Z,49.72
2018-04-14T15:44:12.783Z,49.84
2018-04-14T15:46:40.172Z,50.94
2018-04-14T15:49:07.558Z,50.60
2018-04-14T15:51:34.946Z,52.28
2018-04-14T15:54:02.340Z,52.26
2018-04-14T15:56:29.745Z,52.21
2018-04-14T15:58:57.122Z,52.69
2018-04-14T16:01:24.511Z,53.01
2018-04-14T16:03:51.960Z,52.30
2018-04-14T16:06:19.309Z,52.89
2018-04-14T16:08:46.713Z,52.65
2018-04-14T16:11:14.118Z,52.81
2018-04-14T16:13:41.663Z,53.21
2018-04-14T16:16:09.052Z,52.71
2018-04-14T16:18:37.065Z,52.79
2018-04-14T16:21:04.451Z,52.32
2018-04-14T16:23:31.877Z,51.07
2018-04-14T16:25:59.251Z,52.27
2018-04-14T16:28:26.647Z,51.82
2018-04-14T16:30:54.040Z,52.37
2018-04-14T16:33:21.427Z,52.46
2018-04-14T16:35:48.823Z,52.49
2018-04-14T16:38:16.217Z,52.33
2018-04-14T16:40:43.611Z,52.75
2018-04-14T16:43:10.996Z,53.20
2018-04-14T16:45:38.383Z,53.03
2018-04-14T16:48:05.791Z,53.66
2018-04-14T16:50:33.167Z,54.22
2018-04-14T16:53:00.555Z,54.66
2018-04-14T16:55:27.955Z,55.39
2018-04-14T16:57:55.368Z,54.98
2018-04-14T17:00:22.764Z,55.11
2018-04-14T17:02:50.154Z,55.75
2018-04-14T17:05:17.558Z,55.18
2018-04-14T17:07:44.971Z,55.76
2018-04-14T17:10:12.380Z,56.38
2018-04-14T17:12:39.763Z,56.42
2018-04-14T17:15:07.163Z,56.93
2018-04-14T17:17:34.555Z,57.28
2018-04-14T17:20:01.947Z,57.89
2018-04-14T17:22:29.335Z,58.09
2018-04-14T17:24:56.727Z,58.14
2018-04-14T17:27:24.107Z,58.98
2018-04-14T17:29:51.509Z,58.53
2018-04-14T17:32:18.891Z,58.65
2018-04-14T17:34:46.295Z,59.13
2018-04-14T17:37:13.683Z,59.02
2018-04-14T17:39:41.071Z,59.88
2018-04-14T17:42:08.486Z,59.68
2018-04-14T17:44:35.878Z,59.68
2018-04-14T17:47:03.274Z,59.87
2018-04-14T17:49:30.671Z,59.95
2018-04-14T17:51:58.063Z,59.74
2018-04-14T17:54:25.451Z,60.02
2018-04-14T17:56:53.760Z,60.19
2018-04-14T17:59:21.147Z,60.71
2018-04-14T18:01:48.558Z,60.59
2018-04-14T18:04:15.948Z,60.58
2018-04-14T18:06:43.326Z,60.76
2018-04-14T18:09:10.723Z,61.02
2018-04-14T18:11:38.138Z,60.50
2018-04-14T18:14:05.524Z,61.23
2018-04-14T18:16:32.910Z,61.17
2018-04-14T18:19:00.308Z,61.57
2018-04-14T18:21:27.694Z,61.36
2018-04-14T18:23:55.111Z,61.53
2018-04-14T18:26:22.494Z,61.41
2018-04-14T18:28:49.883Z,61.55
2018-04-14T18:31:17.278Z,61.39
2018-04-14T18:33:44.667Z,61.40
2018-04-14T18:36:12.064Z,61.47
2018-04-14T18:38:39.455Z,61.73
2018-04-14T18:41:06.847Z,61.51
2018-04-14T18:43:34.237Z,62.00
2018-04-14T18:46:01.647Z,61.94
2018-04-14T18:48:29.039Z,61.86
2018-04-14T18:50:56.883Z,62.04
2018-04-14T18:53:24.347Z,62.03
2018-04-14T18:55:51.735Z,62.04
2018-04-14T18:58:19.135Z,61.75
2018-04-14T19:00:46.532Z,62.41
2018-04-14T19:03:13.931Z,63.96
2018-04-14T19:05:41.319Z,63.87
2018-04-14T19:08:08.711Z,63.26
2018-04-14T19:10:36.107Z,63.38
2018-04-14T19:13:03.506Z,63.16
2018-04-14T19:15:30.908Z,63.12
2018-04-14T19:17:58.330Z,63.17
2018-04-14T19:20:25.681Z,63.27
2018-04-14T19:22:53.071Z,64.04
2018-04-14T19:25:20.533Z,64.68
2018-04-14T19:27:47.912Z,64.32
2018-04-14T19:30:15.303Z,64.38
2018-04-14T19:32:42.715Z,64.58
2018-04-14T19:35:10.112Z,64.41
2018-04-14T19:37:37.553Z,64.66
2018-04-14T19:40:04.907Z,64.57
2018-04-14T19:42:33.294Z,64.89
2018-04-14T19:45:00.703Z,65.24
2018-04-14T19:47:28.099Z,64.98
2018-04-14T19:49:55.480Z,65.33
2018-04-14T19:52:22.875Z,65.11
2018-04-14T19:54:50.266Z,64.84
2018-04-14T19:57:17.662Z,64.15
2018-04-14T19:59:45.094Z,64.39
2018-04-14T20:02:12.739Z,64.48
2018-04-14T20:04:40.128Z,64.77
2018-04-14T20:07:07.525Z,64.52
2018-04-14T20:09:34.906Z,64.18
2018-04-14T20:12:02.292Z,64.54
2018-04-14T20:14:29.684Z,65.28
2018-04-14T20:16:57.077Z,64.87
2018-04-14T20:19:24.467Z,65.05
2018-04-14T20:21:51.858Z,64.82
2018-04-14T20:24:19.252Z,65.20
2018-04-14T20:26:46.647Z,65.47
2018-04-14T20:29:14.032Z,64.95
2018-04-14T20:31:41.432Z,65.47
2018-04-14T20:34:08.818Z,65.54
2018-04-14T20:36:36.221Z,66.36
2018-04-14T20:39:03.613Z,66.80
2018-04-14T20:41:31.439Z,66.81
2018-04-14T20:43:58.839Z,67.09
2018-04-14T20:46:26.226Z,67.43
2018-04-14T20:48:53.623Z,66.66
2018-04-14T20:51:21.007Z,66.68
2018-04-14T20:53:48.394Z,67.03
2018-04-14T20:56:15.782Z,66.41
2018-04-14T20:58:43.180Z,66.68
2018-04-14T21:01:10.563Z,66.66
2018-04-14T21:03:37.947Z,65.86
2018-04-14T21:06:05.401Z,65.98
2018-04-14T21:08:32.804Z,65.67
2018-04-14T21:11:00.198Z,65.22
2018-04-14T21:13:27.587Z,65.46
2018-04-14T21:15:55.238Z,65.29
2018-04-14T21:18:22.627Z,65.16
2018-04-14T21:20:50.027Z,65.32
2018-04-14T21:23:17.411Z,65.00
2018-04-14T21:25:44.801Z,65.30
2018-04-14T21:28:12.195Z,64.90
2018-04-14T21:30:39.584Z,65.36
2018-04-14T21:33:06.982Z,65.48
2018-04-14T21:35:34.371Z,65.34
2018-04-14T21:38:01.782Z,65.80
2018-04-14T21:40:29.170Z,66.21
2018-04-14T21:42:56.559Z,65.90
2018-04-14T21:45:23.948Z,66.34
2018-04-14T21:47:51.336Z,66.16
2018-04-14T21:50:18.726Z,66.80
2018-04-14T21:52:46.110Z,67.29
2018-04-14T21:55:13.503Z,67.24
2018-04-14T21:57:40.894Z,67.35
2018-04-14T22:00:08.292Z,67.49
2018-04-14T22:02:35.680Z,67.48
2018-04-14T22:05:03.070Z,67.61
2018-04-14T22:07:30.454Z,67.72
2018-04-14T22:09:57.851Z,67.72
2018-04-14T22:12:25.487Z,68.34
2018-04-14T22:14:53.227Z,69.55
2018-04-14T22:17:20.627Z,70.08
2018-04-14T22:19:48.020Z,70.16
2018-04-14T22:22:15.426Z,70.59
2018-04-14T22:24:42.811Z,71.68
2018-04-14T22:27:10.210Z,73.27
2018-04-14T22:29:37.602Z,73.48
2018-04-14T22:32:05.183Z,73.63
2018-04-14T22:34:32.566Z,73.56
2018-04-14T22:36:59.958Z,73.16
2018-04-14T22:39:27.371Z,73.00
2018-04-14T22:41:54.743Z,74.27
2018-04-14T22:44:22.151Z,73.67
2018-04-14T22:46:49.543Z,73.27
2018-04-14T22:49:16.939Z,75.30
2018-04-14T22:51:44.336Z,74.26
2018-04-14T22:54:11.723Z,74.34
2018-04-14T22:56:39.118Z,74.17
2018-04-14T22:59:06.507Z,74.48
2018-04-14T23:01:33.898Z,74.09
2018-04-14T23:04:01.287Z,73.99
2018-04-14T23:06:28.687Z,74.31
2018-04-14T23:08:56.081Z,74.53
2018-04-14T23:11:23.471Z,75.07
2018-04-14T23:13:50.867Z,75.79
2018-04-14T23:16:18.259Z,77.12
2018-04-14T23:18:45.647Z,77.79
2018-04-14T23:21:13.035Z,78.77
2018-04-14T23:23:40.432Z,78.98
2018-04-14T23:26:08.008Z,79.15
2018-04-14T23:28:35.675Z,78.82
2018-04-14T23:31:03.058Z,79.08
2018-04-14T23:33:30.443Z,79.25
2018-04-14T23:35:57.838Z,78.88
2018-04-14T23:38:25.223Z,79.62
2018-04-14T23:40:52.632Z,79.13
2018-04-14T23:43:20.019Z,78.85
2018-04-14T23:45:47.436Z,78.21
2018-04-14T23:48:14.838Z,78.02
2018-04-14T23:50:42.227Z,79.24
2018-04-14T23:58:51.383Z,80.61
